Time;durP1;ratioP1;P1;durP2;ratioP2;P2;SDS_P1;SDS_P2;PMS_P1;PMS_P2;Temp;Humidity;BMP_temperature;BMP_pressure;BME280_temperature;BME280_humidity;BME280_pressure;Samples;Min_cycle;Max_cycle;Signal;HPM_P1;HPM_P2
2023/06/21 00:01:39;;;;;;;13.43;8.98;;;;;;;20.94;100.00;100327.78;5574520;31;34743;-66
2023/06/21 00:04:47;;;;;;;;;;;;;;;20.80;100.00;100323.69;5588559;31;34709;-67
2023/06/21 00:07:54;;;;;;;13.00;9.40;;;;;;;20.66;100.00;100320.44;5574947;31;34444;-67
2023/06/21 00:11:03;;;;;;;13.45;9.90;;;;;;;20.53;100.00;100315.25;5588258;31;34749;-67
2023/06/21 00:14:09;;;;;;;12.80;9.23;;;;;;;20.52;100.00;100318.19;5588119;31;34802;-66
2023/06/21 00:17:15;;;;;;;14.93;9.50;;;;;;;20.50;100.00;100312.22;5588172;31;34181;-66
2023/06/21 00:20:24;;;;;;;12.02;8.98;;;;;;;20.46;100.00;100316.44;5588156;31;33984;-66
2023/06/21 00:23:34;;;;;;;11.18;8.98;;;;;;;20.37;100.00;100322.19;5588238;31;34038;-66
2023/06/21 00:26:40;;;;;;;12.73;9.13;;;;;;;20.39;100.00;100324.63;5587990;31;34136;-66
2023/06/21 00:29:48;;;;;;;;;;;;;;;20.36;100.00;100322.41;5588375;31;35119;-66
2023/06/21 00:32:57;;;;;;;12.23;8.50;;;;;;;20.29;100.00;100322.47;5588034;31;34268;-66
2023/06/21 00:36:08;;;;;;;11.52;9.05;;;;;;;20.28;100.00;100323.50;5588005;31;34019;-66
2023/06/21 00:39:14;;;;;;;10.23;8.98;;;;;;;20.22;100.00;100321.78;5588020;31;34236;-67
2023/06/21 00:42:23;;;;;;;13.62;8.15;;;;;;;20.26;100.00;100322.13;5588059;31;34851;-66
2023/06/21 00:45:33;;;;;;;13.88;8.63;;;;;;;20.29;100.00;100325.16;5587952;31;34223;-66
2023/06/21 00:48:43;;;;;;;12.02;8.55;;;;;;;20.15;100.00;100329.13;5588063;31;34070;-67
2023/06/21 00:51:57;;;;;;;11.52;8.55;;;;;;;20.16;100.00;100330.78;5587784;31;34774;-67
2023/06/21 00:55:07;;;;;;;12.93;8.60;;;;;;;20.20;100.00;100337.34;5587831;31;33971;-66
2023/06/21 00:58:14;;;;;;;9.65;7.93;;;;;;;20.23;100.00;100336.88;5587879;31;33939;-66
2023/06/21 01:01:25;;;;;;;11.20;7.82;;;;;;;20.26;100.00;100341.81;5588099;31;34158;-67
2023/06/21 01:04:33;;;;;;;10.27;8.10;;;;;;;20.26;100.00;100340.97;5587671;31;34795;-66
2023/06/21 01:07:54;;;;;;;10.85;8.18;;;;;;;20.30;100.00;100334.06;5588058;31;34571;-66
2023/06/21 01:11:24;;;;;;;11.10;7.85;;;;;;;20.18;100.00;100327.84;5587176;31;33808;-67
2023/06/21 01:15:11;;;;;;;13.30;8.93;;;;;;;20.06;100.00;100343.16;5587536;31;34277;-66
2023/06/21 01:18:22;;;;;;;9.57;8.38;;;;;;;19.97;100.00;100342.66;5587629;31;34045;-66
2023/06/21 01:21:33;;;;;;;11.65;8.63;;;;;;;20.10;100.00;100342.47;5587632;31;34621;-66
2023/06/21 01:25:04;;;;;;;14.95;8.50;;;;;;;19.97;100.00;100348.06;5587903;31;34068;-66
2023/06/21 01:28:14;;;;;;;9.32;8.30;;;;;;;19.94;100.00;100343.94;5587506;31;34562;-67
2023/06/21 01:31:23;;;;;;;16.45;8.70;;;;;;;19.96;100.00;100341.84;5587533;31;34620;-66
2023/06/21 01:34:31;;;;;;;9.20;8.20;;;;;;;19.97;100.00;100337.28;5587689;31;34732;-67
2023/06/21 01:37:45;;;;;;;13.07;8.35;;;;;;;20.10;100.00;100344.31;5587500;31;33951;-67
2023/06/21 01:40:51;;;;;;;13.88;8.10;;;;;;;19.99;100.00;100337.06;5587599;31;34949;-67
2023/06/21 01:43:57;;;;;;;14.55;8.25;;;;;;;19.95;100.00;100334.00;5587403;31;33826;-67
2023/06/21 01:47:06;;;;;;;10.27;8.32;;;;;;;19.97;100.00;100329.22;5573990;31;33945;-67
2023/06/21 01:50:16;;;;;;;10.43;8.13;;;;;;;19.94;100.00;100330.47;5587335;31;34032;-67
2023/06/21 01:53:23;;;;;;;10.27;8.13;;;;;;;19.84;100.00;100335.63;5587174;31;34180;-67
2023/06/21 01:56:31;;;;;;;;;;;;;;;19.79;100.00;100340.03;5587512;31;34150;-67
2023/06/21 01:59:41;;;;;;;9.32;8.32;;;;;;;19.80;100.00;100342.47;5587585;31;35119;-67
2023/06/21 02:02:54;;;;;;;9.85;7.87;;;;;;;19.89;100.00;100340.31;5587096;31;34603;-66
2023/06/21 02:06:05;;;;;;;9.88;8.30;;;;;;;19.87;100.00;100347.78;5587265;31;34782;-66
2023/06/21 02:09:13;;;;;;;10.63;8.55;;;;;;;19.73;100.00;100344.47;5587288;31;34309;-66
2023/06/21 02:12:23;;;;;;;11.02;8.55;;;;;;;19.68;100.00;100344.31;5587188;31;34145;-66
2023/06/21 02:15:30;;;;;;;14.00;8.40;;;;;;;19.60;100.00;100341.13;5587145;31;34616;-66
2023/06/21 02:18:41;;;;;;;10.77;8.88;;;;;;;19.55;100.00;100343.69;5587171;31;34808;-67
2023/06/21 02:21:49;;;;;;;8.80;7.90;;;;;;;19.66;100.00;100351.78;5586552;31;34808;-66
2023/06/21 02:24:54;;;;;;;10.52;8.38;;;;;;;19.65;100.00;100349.34;5586917;31;35548;-66
2023/06/21 02:28:02;;;;;;;11.35;8.50;;;;;;;19.61;100.00;100350.81;5573654;31;34177;-67
2023/06/21 02:31:09;;;;;;;12.50;8.75;;;;;;;19.66;100.00;100350.97;5587010;31;34923;-67
2023/06/21 02:34:17;;;;;;;15.65;9.27;;;;;;;19.64;100.00;100345.84;5586815;31;34200;-66
2023/06/21 02:37:24;;;;;;;13.25;9.30;;;;;;;19.60;100.00;100352.72;5587023;31;34137;-67
2023/06/21 02:40:30;;;;;;;13.65;8.68;;;;;;;19.59;100.00;100353.78;5587059;31;34648;-67
2023/06/21 02:43:39;;;;;;;15.85;9.40;;;;;;;19.52;100.00;100348.47;5587310;31;34027;-67
2023/06/21 02:46:48;;;;;;;13.80;9.07;;;;;;;19.55;100.00;100346.38;5586937;31;34152;-67
2023/06/21 02:49:54;;;;;;;12.50;9.25;;;;;;;19.53;100.00;100346.59;5586876;31;34794;-67
2023/06/21 02:53:01;;;;;;;17.20;9.02;;;;;;;19.51;100.00;100352.19;5586721;31;33741;-67
2023/06/21 02:56:05;;;;;;;12.93;8.88;;;;;;;19.53;100.00;100347.41;5583495;31;34780;-66
2023/06/21 02:59:12;;;;;;;15.65;8.93;;;;;;;19.57;100.00;100342.41;5575440;31;34624;-67
2023/06/21 03:02:18;;;;;;;10.90;8.75;;;;;;;19.58;100.00;100353.97;5582046;31;34703;-67
2023/06/21 03:05:26;;;;;;;14.55;9.30;;;;;;;19.60;100.00;100343.81;5586732;31;34124;-67
2023/06/21 03:08:36;;;;;;;12.60;9.27;;;;;;;19.59;100.00;100343.00;5587010;31;34869;-67
2023/06/21 03:11:44;;;;;;;11.18;8.73;;;;;;;19.56;100.00;100338.06;5586642;31;33811;-67
2023/06/21 03:14:49;;;;;;;13.32;9.13;;;;;;;19.52;100.00;100342.25;5586603;31;34142;-67
2023/06/21 03:17:56;;;;;;;17.12;8.73;;;;;;;19.53;100.00;100341.22;5586621;31;34159;-67
2023/06/21 03:21:04;;;;;;;12.95;8.57;;;;;;;19.57;100.00;100342.41;5576139;31;34064;-67
2023/06/21 03:24:10;;;;;;;9.40;8.23;;;;;;;19.59;100.00;100356.47;5566895;32;34758;-66
2023/06/21 03:27:16;;;;;;;10.73;8.57;;;;;;;19.59;100.00;100350.25;5566004;32;34995;-66
2023/06/21 03:30:25;;;;;;;15.43;9.13;;;;;;;19.58;100.00;100349.44;5566890;32;33922;-68
2023/06/21 03:33:30;;;;;;;13.70;8.77;;;;;;;19.61;100.00;100353.53;5566412;32;34118;-68
2023/06/21 03:36:38;;;;;;;12.37;8.95;;;;;;;19.64;100.00;100348.53;5566666;32;34011;-68
2023/06/21 03:39:43;;;;;;;12.68;8.00;;;;;;;19.64;100.00;100340.44;5566591;32;34135;-68
2023/06/21 03:42:52;;;;;;;10.30;8.68;;;;;;;19.66;100.00;100340.22;5566584;32;34022;-67
2023/06/21 03:46:01;;;;;;;13.35;8.57;;;;;;;19.81;100.00;100343.31;5568261;31;34136;-68
2023/06/21 03:49:10;;;;;;;14.25;8.73;;;;;;;19.83;100.00;100335.84;5583778;31;33449;-67
2023/06/21 03:52:17;;;;;;;11.10;8.48;;;;;;;19.85;100.00;100341.78;5575412;31;33857;-70
2023/06/21 03:55:25;;;;;;;13.80;8.65;;;;;;;19.86;100.00;100340.75;5575130;31;34016;-70
2023/06/21 03:58:32;;;;;;;13.25;8.90;;;;;;;19.86;100.00;100341.56;5567961;31;33783;-70
2023/06/21 04:01:43;;;;;;;10.60;8.65;;;;;;;19.89;100.00;100349.22;5573590;31;33983;-70
2023/06/21 04:04:48;;;;;;;;;;;;;;;19.92;100.00;100343.38;5585462;31;34189;-69
2023/06/21 04:07:54;;;;;;;11.43;8.18;;;;;;;20.13;100.00;100343.88;5571507;31;34605;-69
2023/06/21 04:11:00;;;;;;;12.75;8.50;;;;;;;20.21;100.00;100349.75;5565253;32;34712;-68
2023/06/21 04:14:05;;;;;;;15.27;9.43;;;;;;;20.14;100.00;100359.81;5565971;32;33932;-68
2023/06/21 04:17:13;;;;;;;23.87;9.65;;;;;;;20.13;100.00;100349.28;5565730;32;34111;-69
2023/06/21 04:20:20;;;;;;;12.35;9.15;;;;;;;19.96;100.00;100346.41;5565873;32;34775;-69
2023/06/21 04:23:28;;;;;;;12.90;8.85;;;;;;;19.95;100.00;100353.66;5565823;32;34041;-70
2023/06/21 04:26:34;;;;;;;9.35;8.27;;;;;;;20.09;100.00;100358.87;5565759;32;34406;-70
2023/06/21 04:29:40;;;;;;;15.48;8.52;;;;;;;20.07;100.00;100364.47;5565739;32;34245;-71
2023/06/21 04:32:48;;;;;;;13.68;8.98;;;;;;;20.14;100.00;100375.97;5565619;32;34672;-70
2023/06/21 04:35:54;;;;;;;14.07;8.57;;;;;;;20.28;100.00;100384.69;5565871;32;34299;-71
2023/06/21 04:39:01;;;;;;;15.52;9.18;;;;;;;20.41;100.00;100391.75;5569307;31;33911;-71
2023/06/21 04:42:07;;;;;;;15.75;8.52;;;;;;;20.40;100.00;100401.72;5583920;31;34153;-69
2023/06/21 04:45:15;;;;;;;15.77;8.65;;;;;;;20.36;100.00;100411.31;5585236;31;33865;-70
2023/06/21 04:48:24;;;;;;;9.60;8.18;;;;;;;20.37;100.00;100408.41;5587801;31;34123;-70
2023/06/21 04:51:29;;;;;;;15.13;8.85;;;;;;;20.38;100.00;100409.22;5587674;31;35131;-69
2023/06/21 04:54:37;;;;;;;17.40;9.68;;;;;;;20.56;100.00;100419.91;5587870;31;34105;-70
2023/06/21 04:57:47;;;;;;;13.20;8.02;;;;;;;20.76;100.00;100425.81;5587488;31;33844;-70
2023/06/21 05:00:54;;;;;;;21.08;9.00;;;;;;;21.06;100.00;100422.16;5586650;31;34068;-70
2023/06/21 05:03:58;;;;;;;18.80;8.80;;;;;;;21.21;100.00;100426.06;5587570;31;33839;-70
2023/06/21 05:07:05;;;;;;;9.63;7.87;;;;;;;21.34;100.00;100424.19;5579302;31;33844;-71
2023/06/21 05:10:11;;;;;;;22.37;8.90;;;;;;;21.30;100.00;100421.09;5574066;31;34828;-71
2023/06/21 05:13:17;;;;;;;15.93;8.25;;;;;;;21.30;100.00;100417.63;5586585;31;34330;-71
2023/06/21 05:16:23;;;;;;;17.50;8.18;;;;;;;21.33;100.00;100414.44;5587024;31;34004;-70
2023/06/21 05:19:30;;;;;;;12.85;7.68;;;;;;;21.31;100.00;100411.13;5587620;31;34374;-71
2023/06/21 05:22:35;;;;;;;10.77;7.95;;;;;;;21.48;100.00;100407.50;5587253;31;34005;-71
2023/06/21 05:25:39;;;;;;;14.65;7.65;;;;;;;21.62;100.00;100405.34;5586163;31;33998;-71
2023/06/21 05:28:44;;;;;;;16.27;7.75;;;;;;;21.72;100.00;100405.53;5587341;31;35058;-70
2023/06/21 05:31:50;;;;;;;16.00;8.45;;;;;;;21.91;100.00;100403.47;5583036;31;35274;-71
2023/06/21 05:34:56;;;;;;;14.65;8.30;;;;;;;22.07;100.00;100402.72;5585959;31;34058;-71
2023/06/21 05:38:01;;;;;;;13.88;7.85;;;;;;;22.40;100.00;100413.59;5586625;31;33912;-70
2023/06/21 05:41:04;;;;;;;14.70;8.38;;;;;;;22.58;100.00;100412.53;5586887;31;34036;-70
2023/06/21 05:44:09;;;;;;;16.20;8.40;;;;;;;22.56;100.00;100414.66;5587025;31;34174;-71
2023/06/21 05:47:14;;;;;;;17.05;8.35;;;;;;;22.74;100.00;100421.75;5586751;31;34030;-70
2023/06/21 05:50:18;;;;;;;33.58;9.27;;;;;;;22.92;100.00;100416.06;5586353;31;34693;-71
2023/06/21 05:53:21;;;;;;;17.20;8.38;;;;;;;23.23;100.00;100423.56;5566438;32;34716;-71
2023/06/21 05:56:26;;;;;;;19.00;8.38;;;;;;;23.29;100.00;100430.69;5566614;32;34723;-71
2023/06/21 05:59:30;;;;;;;12.07;7.70;;;;;;;23.45;100.00;100420.91;5566500;32;34679;-72
2023/06/21 06:02:34;;;;;;;13.18;8.23;;;;;;;23.45;100.00;100423.63;5566132;32;34594;-71
2023/06/21 06:05:38;;;;;;;10.85;7.35;;;;;;;23.54;96.41;100418.56;5566377;32;34376;-71
2023/06/21 06:08:41;;;;;;;19.23;8.25;;;;;;;23.64;100.00;100422.22;5566984;32;34737;-70
2023/06/21 06:11:44;;;;;;;35.58;8.05;;;;;;;23.92;94.77;100417.66;5566865;32;33998;-69
2023/06/21 06:14:48;;;;;;;20.30;8.18;;;;;;;23.94;92.89;100413.66;5573888;31;34089;-71
2023/06/21 06:17:51;;;;;;;20.80;7.70;;;;;;;24.04;92.38;100415.63;5582021;31;34092;-70
2023/06/21 06:20:54;;;;;;;14.05;7.57;;;;;;;24.20;91.80;100415.59;5578922;31;35176;-70
2023/06/21 06:23:58;;;;;;;10.23;7.50;;;;;;;24.34;87.48;100418.69;5590963;31;34708;-70
2023/06/21 06:27:02;;;;;;;19.67;7.47;;;;;;;24.34;88.88;100420.59;5585153;31;34134;-70
2023/06/21 06:30:07;;;;;;;20.80;8.20;;;;;;;24.52;86.81;100426.44;5580932;31;34066;-70
2023/06/21 06:33:11;;;;;;;13.98;7.62;;;;;;;24.71;87.31;100420.63;5579162;31;34175;-70
2023/06/21 06:36:15;;;;;;;11.38;7.47;;;;;;;24.78;84.86;100430.19;5578009;31;34358;-70
2023/06/21 06:39:19;;;;;;;20.92;7.50;;;;;;;24.64;88.37;100421.66;5583311;31;34041;-72
2023/06/21 06:42:23;;;;;;;19.75;8.18;;;;;;;24.67;91.54;100414.91;5584605;31;34096;-71
2023/06/21 06:45:27;;;;;;;20.95;7.50;;;;;;;25.00;84.79;100411.91;5584803;31;33998;-71
2023/06/21 06:48:32;;;;;;;13.15;7.87;;;;;;;25.16;87.55;100406.56;5578258;31;34209;-69
2023/06/21 06:51:36;;;;;;;13.18;7.75;;;;;;;25.46;84.64;100412.97;5576534;31;33808;-72
2023/06/21 06:54:41;;;;;;;15.25;8.30;;;;;;;25.67;82.47;100413.06;5574425;31;34181;-71
2023/06/21 06:57:44;;;;;;;11.88;7.95;;;;;;;26.04;80.04;100421.09;5576054;31;34851;-72
2023/06/21 07:01:06;;;;;;;16.98;8.20;;;;;;;25.73;82.06;100421.00;5580138;31;34474;-70
2023/06/21 07:04:09;;;;;;;14.27;7.90;;;;;;;25.76;82.04;100415.00;5582551;31;34163;-70
2023/06/21 07:07:15;;;;;;;16.42;9.15;;;;;;;26.18;78.24;100408.59;5585837;31;34125;-72
2023/06/21 07:10:18;;;;;;;19.85;8.30;;;;;;;26.56;76.94;100413.56;5581875;31;34136;-71
2023/06/21 07:13:25;;;;;;;12.45;8.20;;;;;;;26.94;73.09;100423.09;5582130;31;35147;-70
2023/06/21 07:16:40;;;;;;;12.07;8.10;;;;;;;27.22;70.44;100422.47;5584995;31;34077;-71
2023/06/21 07:19:46;;;;;;;19.87;8.23;;;;;;;27.14;73.82;100423.06;5568642;31;34519;-71
2023/06/21 07:22:50;;;;;;;13.57;7.90;;;;;;;27.40;69.73;100423.78;5582782;31;33964;-71
2023/06/21 07:25:56;;;;;;;15.88;7.68;;;;;;;27.62;65.07;100412.56;5583287;31;34320;-71
2023/06/21 07:29:01;;;;;;;15.07;8.20;;;;;;;27.64;69.67;100416.63;5574214;31;34111;-71
2023/06/21 07:32:06;;;;;;;15.48;8.10;;;;;;;28.14;68.44;100413.94;5575454;31;33950;-72
2023/06/21 07:35:12;;;;;;;20.58;8.98;;;;;;;28.50;65.63;100412.59;5553094;32;33944;-70
2023/06/21 07:38:18;;;;;;;14.15;7.62;;;;;;;28.75;65.18;100412.41;5552376;32;33826;-71
2023/06/21 07:41:22;;;;;;;14.80;8.02;;;;;;;29.14;61.73;100409.56;5566315;32;34128;-71
2023/06/21 07:44:27;;;;;;;18.75;7.75;;;;;;;29.76;60.17;100405.81;5566001;32;34074;-73
2023/06/21 07:47:31;;;;;;;15.45;7.57;;;;;;;30.38;55.56;100409.31;5565965;32;34209;-71
2023/06/21 07:50:36;;;;;;;11.68;7.28;;;;;;;31.01;55.15;100417.03;5565993;32;34831;-73
2023/06/21 07:53:40;;;;;;;25.98;7.35;;;;;;;31.03;54.80;100417.56;5565986;32;34136;-72
2023/06/21 07:56:45;;;;;;;14.60;7.05;;;;;;;31.76;51.61;100414.72;5575754;31;34531;-72
2023/06/21 07:59:48;;;;;;;19.92;7.07;;;;;;;32.02;50.88;100416.91;5585592;31;34138;-73
2023/06/21 08:02:54;;;;;;;10.43;6.60;;;;;;;32.81;47.38;100418.06;5585238;31;34675;-71
2023/06/21 08:05:59;;;;;;;14.50;6.68;;;;;;;32.82;48.19;100416.94;5584951;31;34087;-72
2023/06/21 08:09:03;;;;;;;14.85;6.37;;;;;;;33.73;45.60;100402.59;5584877;31;33948;-72
2023/06/21 08:12:09;;;;;;;14.82;6.90;;;;;;;34.12;44.61;100396.16;5584797;31;34146;-72
2023/06/21 08:15:14;;;;;;;11.60;6.62;;;;;;;33.18;45.84;100392.06;5584377;31;34263;-71
2023/06/21 08:18:18;;;;;;;12.88;6.65;;;;;;;33.80;45.56;100395.47;5584285;31;34800;-70
2023/06/21 08:21:23;;;;;;;13.77;6.93;;;;;;;35.00;42.03;100416.63;5585818;31;33942;-71
2023/06/21 08:24:28;;;;;;;12.27;6.37;;;;;;;35.43;40.11;100415.66;5586013;31;34120;-72
2023/06/21 08:27:34;;;;;;;15.07;6.60;;;;;;;35.19;41.23;100417.09;5587547;31;33796;-72
2023/06/21 08:30:38;;;;;;;11.68;6.55;;;;;;;35.71;39.68;100422.34;5585112;31;34396;-73
2023/06/21 08:33:42;;;;;;;15.65;6.45;;;;;;;37.33;37.36;100429.44;5587154;31;34699;-72
2023/06/21 08:36:46;;;;;;;17.67;6.30;;;;;;;38.32;35.28;100426.22;5587132;31;34546;-71
2023/06/21 08:39:51;;;;;;;16.90;6.03;;;;;;;38.10;35.63;100419.25;5586258;31;34055;-71
2023/06/21 08:42:59;;;;;;;14.70;6.32;;;;;;;38.43;34.57;100425.38;5587134;31;34313;-73
2023/06/21 08:46:06;;;;;;;14.85;6.68;;;;;;;36.83;38.13;100438.00;5587115;31;33938;-73
2023/06/21 08:49:17;;;;;;;15.65;6.15;;;;;;;37.82;36.29;100428.28;5586770;31;34077;-72
2023/06/21 08:52:22;;;;;;;15.45;6.30;;;;;;;39.27;33.73;100431.59;5585471;31;33903;-71
2023/06/21 08:55:28;;;;;;;18.05;6.10;;;;;;;38.27;34.19;100435.59;5576123;31;34258;-71
2023/06/21 08:58:45;;;;;;;9.00;5.87;;;;;;;37.64;34.74;100438.00;5583116;31;34703;-71
2023/06/21 09:02:03;;;;;;;10.88;5.87;;;;;;;36.26;36.74;100437.88;5587377;31;34075;-71
2023/06/21 09:05:12;;;;;;;11.20;5.70;;;;;;;37.67;35.62;100439.25;5587204;31;34739;-71
2023/06/21 09:08:18;;;;;;;11.90;5.68;;;;;;;37.29;34.87;100434.88;5587149;31;34708;-71
2023/06/21 09:11:23;;;;;;;13.80;6.20;;;;;;;37.92;34.34;100428.94;5587152;31;35007;-72
2023/06/21 09:14:31;;;;;;;12.65;6.10;;;;;;;38.00;33.96;100431.62;5586362;31;35038;-71
2023/06/21 09:17:38;;;;;;;9.23;6.00;;;;;;;37.66;34.35;100429.38;5582243;31;34179;-71
2023/06/21 09:20:46;;;;;;;15.13;6.22;;;;;;;37.84;34.40;100419.63;5586845;31;34005;-72
2023/06/21 09:23:51;;;;;;;9.02;5.78;;;;;;;39.37;31.43;100413.59;5587143;31;34256;-72
2023/06/21 09:26:56;;;;;;;14.90;6.28;;;;;;;38.98;32.04;100420.94;5586152;31;34166;-71
2023/06/21 09:30:04;;;;;;;9.93;6.10;;;;;;;39.35;31.11;100415.94;5584629;31;33664;-73
2023/06/21 09:33:30;;;;;;;11.65;5.90;;;;;;;38.65;31.94;100415.69;5580502;31;34105;-72
2023/06/21 09:36:34;;;;;;;11.18;5.93;;;;;;;40.06;30.94;100418.38;5586875;31;34672;-71
2023/06/21 09:39:38;;;;;;;25.70;6.87;;;;;;;40.53;29.74;100418.16;5586494;31;34277;-71
2023/06/21 09:42:45;;;;;;;19.60;6.15;;;;;;;40.19;30.96;100428.22;5586960;31;34292;-71
2023/06/21 09:46:07;;;;;;;13.30;6.50;;;;;;;38.42;33.22;100420.16;5589636;31;34045;-71
2023/06/21 09:49:11;;;;;;;10.07;5.80;;;;;;;37.10;34.87;100417.22;5576345;31;34604;-72
2023/06/21 09:52:21;;;;;;;13.88;6.30;;;;;;;35.64;36.61;100425.59;5586215;31;33791;-74
2023/06/21 09:55:25;;;;;;;11.98;6.25;;;;;;;34.26;39.40;100422.41;5575855;31;33310;-76
2023/06/21 09:58:35;;;;;;;19.00;7.22;;;;;;;34.87;38.97;100428.66;5587020;31;34801;-72
2023/06/21 10:01:44;;;;;;;15.15;6.60;;;;;;;36.33;36.93;100429.84;5588576;31;34179;-70
2023/06/21 10:04:54;;;;;;;11.27;6.45;;;;;;;37.95;35.15;100423.53;5587000;31;34172;-72
2023/06/21 10:07:58;;;;;;;12.65;6.30;;;;;;;37.95;34.76;100420.78;5586761;31;34040;-70
2023/06/21 10:11:03;;;;;;;15.20;6.28;;;;;;;36.35;37.25;100425.62;5586674;31;35248;-70
2023/06/21 10:14:20;;;;;;;7.50;5.78;;;;;;;37.18;36.14;100413.56;5586758;31;34126;-71
2023/06/21 10:17:23;;;;;;;10.02;6.20;;;;;;;37.47;34.76;100420.81;5572287;31;33882;-71
2023/06/21 10:20:27;;;;;;;11.85;6.82;;;;;;;36.57;37.34;100411.41;5586671;31;34811;-70
2023/06/21 10:23:38;;;;;;;8.55;6.47;;;;;;;34.69;39.71;100416.87;5586650;31;34110;-71
2023/06/21 10:26:44;;;;;;;8.50;6.30;;;;;;;33.81;41.41;100423.81;5586610;31;34042;-71
2023/06/21 10:29:56;;;;;;;8.07;6.20;;;;;;;33.51;41.35;100426.28;5585948;31;35124;-73
2023/06/21 10:33:02;;;;;;;8.50;6.03;;;;;;;33.55;41.34;100424.53;5586364;31;33937;-76
2023/06/21 10:36:10;;;;;;;12.77;6.55;;;;;;;35.16;39.17;100414.13;5573166;31;33992;-72
2023/06/21 10:39:15;;;;;;;13.85;7.07;;;;;;;36.08;37.82;100431.66;5586207;31;33826;-72
2023/06/21 10:42:20;;;;;;;10.65;6.25;;;;;;;35.34;38.86;100436.97;5586586;31;34985;-70
2023/06/21 10:45:27;;;;;;;8.20;6.72;;;;;;;33.61;41.74;100430.69;5572925;31;34044;-72
2023/06/21 10:48:33;;;;;;;13.20;7.00;;;;;;;31.96;44.80;100440.91;5581893;31;34070;-72
2023/06/21 10:51:40;;;;;;;15.30;7.03;;;;;;;31.67;46.27;100435.78;5576438;31;34188;-71
2023/06/21 10:54:47;;;;;;;11.12;7.10;;;;;;;32.04;46.57;100437.44;5576843;31;34046;-72
2023/06/21 10:57:53;;;;;;;17.05;7.40;;;;;;;32.35;46.07;100446.63;5575265;31;35034;-73
2023/06/21 11:00:57;;;;;;;18.20;7.68;;;;;;;32.59;45.30;100442.75;5572365;31;34796;-73
2023/06/21 11:04:00;;;;;;;16.10;7.05;;;;;;;32.48;46.09;100444.13;5576369;31;34518;-72
2023/06/21 11:07:05;;;;;;;12.02;6.72;;;;;;;32.18;47.56;100434.69;5576374;31;34686;-72
2023/06/21 11:10:09;;;;;;;12.30;7.00;;;;;;;32.34;46.48;100436.75;5572911;31;34136;-70
2023/06/21 11:13:13;;;;;;;16.15;6.93;;;;;;;31.90;47.38;100442.94;5566930;32;34012;-72
2023/06/21 11:16:17;;;;;;;11.40;6.95;;;;;;;31.35;49.04;100438.59;5566691;32;34015;-72
2023/06/21 11:19:21;;;;;;;10.98;7.20;;;;;;;31.53;49.61;100440.41;5576124;31;35190;-73
2023/06/21 11:22:25;;;;;;;13.95;7.22;;;;;;;31.34;50.11;100436.97;5584291;31;34625;-73
2023/06/21 11:25:28;;;;;;;8.93;7.10;;;;;;;32.54;47.82;100443.69;5585999;31;34458;-71
2023/06/21 11:28:33;;;;;;;12.37;7.25;;;;;;;33.87;46.46;100436.28;5585871;31;33963;-71
2023/06/21 11:31:40;;;;;;;12.48;6.68;;;;;;;36.27;40.88;100447.78;5586225;31;34145;-74
2023/06/21 11:34:53;;;;;;;9.60;6.85;;;;;;;37.23;38.31;100450.06;5586033;31;34846;-73
2023/06/21 11:37:56;;;;;;;12.05;7.37;;;;;;;36.83;38.91;100446.31;5586046;31;34011;-71
2023/06/21 11:41:01;;;;;;;14.00;6.70;;;;;;;38.92;36.57;100439.84;5585009;31;34112;-75
2023/06/21 11:44:06;;;;;;;9.43;6.53;;;;;;;36.27;39.18;100439.47;5586066;31;35308;-74
2023/06/21 11:47:17;;;;;;;19.85;8.07;;;;;;;36.49;38.65;100430.84;5585029;31;34820;-73
2023/06/21 11:50:20;;;;;;;10.50;6.95;;;;;;;35.88;40.08;100422.22;5584970;31;34740;-75
2023/06/21 11:53:39;;;;;;;10.15;6.57;;;;;;;35.63;41.19;100423.97;5585723;31;34467;-74
2023/06/21 11:56:42;;;;;;;8.10;7.28;;;;;;;33.93;43.29;100418.50;5588351;31;34790;-74
2023/06/21 11:59:45;;;;;;;11.38;6.85;;;;;;;33.23;45.27;100418.59;5588110;31;33965;-73
2023/06/21 12:02:49;;;;;;;9.07;6.28;;;;;;;33.66;44.76;100408.53;5584887;31;34781;-75
2023/06/21 12:06:03;;;;;;;9.50;6.50;;;;;;;36.98;37.69;100404.16;5587914;31;34477;-74
2023/06/21 12:09:09;;;;;;;10.52;6.47;;;;;;;39.67;33.09;100408.34;5588168;31;34122;-77
2023/06/21 12:12:18;;;;;;;8.85;6.47;;;;;;;40.72;31.53;100406.22;5587167;31;34092;-75
2023/06/21 12:15:21;;;;;;;14.93;6.50;;;;;;;40.75;31.59;100397.94;5573366;31;34689;-71
2023/06/21 12:18:26;;;;;;;9.77;6.47;;;;;;;42.05;30.02;100392.84;5568351;31;34302;-71
2023/06/21 12:21:34;;;;;;;8.70;6.10;;;;;;;44.08;27.72;100401.78;5582251;31;35497;-75
2023/06/21 12:24:37;;;;;;;15.63;6.63;;;;;;;44.20;28.00;100399.84;5584344;31;34682;-76
2023/06/21 12:28:02;;;;;;;8.38;5.78;;;;;;;42.90;28.61;100404.13;5573829;31;33814;-73
2023/06/21 12:31:11;;;;;;;9.32;5.75;;;;;;;43.13;27.85;100403.97;5575448;31;34762;-75
2023/06/21 12:34:17;;;;;;;8.82;6.10;;;;;;;41.60;29.07;100413.28;5583097;31;34320;-73
2023/06/21 12:37:22;;;;;;;10.35;6.53;;;;;;;42.94;28.33;100415.34;5578441;31;33874;-72
2023/06/21 12:40:25;;;;;;;12.13;5.85;;;;;;;43.24;27.89;100402.84;5574765;31;34802;-71
2023/06/21 12:43:35;;;;;;;7.72;5.82;;;;;;;44.46;26.18;100402.31;5575522;31;33013;-72
2023/06/21 12:46:40;;;;;;;14.00;6.50;;;;;;;42.23;28.04;100398.62;5570617;31;34088;-73
2023/06/21 12:49:47;;;;;;;7.03;5.78;;;;;;;43.15;27.77;100398.78;5578680;31;34132;-72
2023/06/21 12:53:01;;;;;;;13.07;6.30;;;;;;;44.01;27.37;100395.38;5587578;31;34112;-73
2023/06/21 12:56:09;;;;;;;14.32;6.55;;;;;;;44.71;25.39;100392.00;5588036;31;34037;-74
2023/06/21 12:59:14;;;;;;;12.52;6.43;;;;;;;42.08;28.95;100385.69;5587255;31;34209;-71
2023/06/21 13:02:26;;;;;;;12.23;6.50;;;;;;;42.69;28.00;100378.84;5587428;31;34772;-71
2023/06/21 13:05:32;;;;;;;13.23;6.80;;;;;;;42.65;28.63;100375.19;5573823;31;34310;-73
2023/06/21 13:08:38;;;;;;;9.57;6.90;;;;;;;44.30;26.52;100369.09;5567621;32;35228;-74
2023/06/21 13:11:44;;;;;;;10.48;6.60;;;;;;;42.91;27.08;100367.47;5566907;32;34761;-74
2023/06/21 13:14:51;;;;;;;14.23;6.70;;;;;;;44.04;26.00;100373.03;5579764;31;34172;-75
2023/06/21 13:17:58;;;;;;;9.45;6.43;;;;;;;45.64;24.71;100378.75;5587270;31;35162;-73
2023/06/21 13:21:02;;;;;;;11.00;6.30;;;;;;;44.01;25.54;100367.41;5586542;31;33885;-74
2023/06/21 13:24:07;;;;;;;12.68;6.32;;;;;;;43.44;27.27;100360.69;5585919;31;34760;-73
2023/06/21 13:27:11;;;;;;;14.63;6.32;;;;;;;44.90;24.47;100366.41;5576312;31;33458;-72
2023/06/21 13:30:14;;;;;;;9.68;6.05;;;;;;;43.92;25.88;100355.78;5574039;31;34040;-75
2023/06/21 13:33:19;;;;;;;9.27;6.10;;;;;;;44.32;24.90;100366.72;5577919;31;34152;-75
2023/06/21 13:36:25;;;;;;;9.13;6.30;;;;;;;42.45;26.98;100353.09;5586291;31;34127;-73
2023/06/21 13:39:33;;;;;;;9.55;6.07;;;;;;;43.17;26.47;100351.75;5574867;31;34030;-74
2023/06/21 13:42:37;;;;;;;13.65;6.47;;;;;;;44.16;25.15;100352.25;5566895;32;34211;-74
2023/06/21 13:45:42;;;;;;;14.30;6.15;;;;;;;45.61;24.21;100341.09;5570012;31;34084;-74
2023/06/21 13:48:46;;;;;;;9.70;6.10;;;;;;;46.20;22.78;100336.47;5574699;31;34060;-75
2023/06/21 13:51:52;;;;;;;8.98;5.47;;;;;;;45.18;23.85;100336.81;5585495;31;34384;-73
2023/06/21 13:54:56;;;;;;;13.73;5.22;;;;;;;43.19;25.80;100336.19;5577369;31;34817;-72
2023/06/21 13:58:00;;;;;;;22.48;5.93;;;;;;;42.43;27.16;100335.13;5576566;31;34583;-72
2023/06/21 14:01:06;;;;;;;11.30;5.35;;;;;;;43.63;25.65;100333.28;5575053;31;34601;-73
2023/06/21 14:04:11;;;;;;;8.80;5.35;;;;;;;43.17;25.69;100333.00;5566963;32;34130;-75
2023/06/21 14:07:17;;;;;;;6.82;5.30;;;;;;;42.28;26.92;100339.75;5566888;32;35455;-74
2023/06/21 14:10:25;;;;;;;11.30;5.87;;;;;;;42.38;25.67;100332.69;5566975;32;34133;-72
2023/06/21 14:13:30;;;;;;;6.28;5.50;;;;;;;41.58;26.46;100325.72;5566455;31;34334;-74
2023/06/21 14:16:35;;;;;;;6.10;4.95;;;;;;;41.96;26.39;100324.63;5585553;31;33749;-73
2023/06/21 14:19:40;;;;;;;10.07;5.30;;;;;;;42.78;25.75;100332.69;5585007;31;34151;-73